createdAt,value
2023-01-30T00:02:16.434Z,95.63
2023-01-30T00:06:18.603Z,96.04
2023-01-30T00:10:20.425Z,96.97
2023-01-30T00:14:22.810Z,97.98
2023-01-30T00:18:24.510Z,98.29
2023-01-30T00:22:26.150Z,97.87
2023-01-30T00:26:27.895Z,98.28
2023-01-30T00:30:30.144Z,98.23
2023-01-30T00:34:32.851Z,98.24
2023-01-30T00:38:34.621Z,99.16
2023-01-30T00:42:54.695Z,100.00
2023-01-30T00:47:05.386Z,100.00
2023-01-30T00:51:07.260Z,100.00
2023-01-30T00:55:09.205Z,100.00
2023-01-30T00:59:10.740Z,100.00
2023-01-30T01:03:12.959Z,100.00
2023-01-30T01:07:15.277Z,100.00
2023-01-30T01:11:24.639Z,100.00
2023-01-30T01:15:27.248Z,100.00
2023-01-30T01:19:28.949Z,100.00
2023-01-30T01:23:30.522Z,100.00
2023-01-30T01:27:32.360Z,100.00
2023-01-30T01:31:34.050Z,100.00
2023-01-30T01:35:40.920Z,100.00
2023-01-30T01:40:00.907Z,100.00
2023-01-30T01:44:11.258Z,100.00
2023-01-30T01:48:26.321Z,100.00
2023-01-30T01:52:28.975Z,100.00
2023-01-30T01:56:34.580Z,100.00
2023-01-30T02:00:36.342Z,100.00
2023-01-30T02:05:01.619Z,100.00
2023-01-30T02:09:08.565Z,100.00
2023-01-30T02:13:10.120Z,100.00
2023-01-30T02:17:11.779Z,100.00
2023-01-30T02:21:34.750Z,100.00
2023-01-30T02:26:12.837Z,100.00
2023-01-30T02:30:36.386Z,100.00
2023-01-30T02:35:05.569Z,100.00
2023-01-30T02:39:25.072Z,100.00
2023-01-30T02:43:37.833Z,100.00
2023-01-30T02:47:56.839Z,100.00
2023-01-30T02:52:00.878Z,100.00
2023-01-30T02:56:03.780Z,100.00
2023-01-30T03:00:07.786Z,100.00
2023-01-30T03:04:26.734Z,100.00
2023-01-30T03:08:41.430Z,100.00
2023-01-30T03:12:55.291Z,100.00
2023-01-30T03:17:01.236Z,100.00
2023-01-30T03:21:07.549Z,100.00
2023-01-30T03:25:10.039Z,100.00
2023-01-30T03:29:11.691Z,100.00
2023-01-30T03:33:14.263Z,100.00
2023-01-30T03:37:21.632Z,100.00
2023-01-30T03:41:23.396Z,100.00
2023-01-30T03:45:25.046Z,100.00
2023-01-30T03:49:27.618Z,100.00
2023-01-30T03:53:29.976Z,100.00
2023-01-30T03:57:31.572Z,100.00
2023-01-30T04:01:34.469Z,100.00
2023-01-30T04:05:36.984Z,100.00
2023-01-30T04:09:41.878Z,100.00
2023-01-30T04:13:45.550Z,100.00
2023-01-30T04:17:47.988Z,100.00
2023-01-30T04:22:08.192Z,100.00
2023-01-30T04:26:11.292Z,100.00
2023-01-30T04:30:15.613Z,100.00
2023-01-30T04:34:17.809Z,100.00
2023-01-30T04:38:20.259Z,100.00
2023-01-30T04:42:22.168Z,100.00
2023-01-30T04:46:43.767Z,100.00
2023-01-30T04:50:49.709Z,100.00
2023-01-30T04:54:51.308Z,100.00
2023-01-30T04:58:53.070Z,100.00
2023-01-30T05:02:58.241Z,100.00
2023-01-30T05:06:59.834Z,100.00
2023-01-30T05:11:01.499Z,100.00
2023-01-30T05:15:03.185Z,100.00
2023-01-30T05:19:04.912Z,100.00
2023-01-30T05:23:06.467Z,100.00
2023-01-30T05:27:08.029Z,100.00
2023-01-30T05:31:14.116Z,100.00
2023-01-30T05:35:16.220Z,100.00
2023-01-30T05:39:18.151Z,100.00
2023-01-30T05:43:19.722Z,100.00
2023-01-30T05:47:21.286Z,100.00
2023-01-30T05:51:25.480Z,100.00
2023-01-30T05:55:27.025Z,100.00
2023-01-30T05:59:28.661Z,100.00
2023-01-30T06:03:30.345Z,100.00
2023-01-30T06:07:32.305Z,100.00
2023-01-30T06:11:33.948Z,100.00
2023-01-30T06:15:36.942Z,100.00
2023-01-30T06:19:38.497Z,100.00
2023-01-30T06:23:40.090Z,100.00
2023-01-30T06:27:43.351Z,100.00
2023-01-30T06:31:45.069Z,100.00
2023-01-30T06:35:49.765Z,100.00
2023-01-30T06:39:51.343Z,100.00
2023-01-30T06:43:52.985Z,100.00
2023-01-30T06:47:55.899Z,100.00
2023-01-30T06:51:57.673Z,100.00
2023-01-30T06:56:01.177Z,100.00
2023-01-30T07:00:11.204Z,100.00
2023-01-30T07:04:12.835Z,100.00
2023-01-30T07:08:15.854Z,100.00
2023-01-30T07:12:17.482Z,100.00
2023-01-30T07:16:19.121Z,100.00
2023-01-30T07:20:20.721Z,100.00
2023-01-30T07:24:43.373Z,100.00
2023-01-30T07:28:46.196Z,100.00
2023-01-30T07:32:54.698Z,100.00
2023-01-30T07:36:56.298Z,100.00
2023-01-30T07:40:58.831Z,100.00
2023-01-30T07:45:00.368Z,100.00
2023-01-30T07:49:02.517Z,100.00
2023-01-30T07:53:05.859Z,100.00
2023-01-30T07:57:07.434Z,100.00
2023-01-30T08:01:09.138Z,100.00
2023-01-30T08:05:10.709Z,100.00
2023-01-30T08:09:13.261Z,100.00
2023-01-30T08:13:14.971Z,100.00
2023-01-30T08:17:16.649Z,100.00
2023-01-30T08:21:18.824Z,100.00
2023-01-30T08:25:22.997Z,100.00
2023-01-30T08:29:24.538Z,100.00
2023-01-30T08:33:26.161Z,100.00
2023-01-30T08:37:27.731Z,100.00
2023-01-30T08:41:29.349Z,100.00
2023-01-30T08:45:31.682Z,100.00
2023-01-30T08:49:33.292Z,100.00
2023-01-30T08:53:36.461Z,100.00
2023-01-30T08:57:52.320Z,100.00
2023-01-30T09:02:06.694Z,100.00
2023-01-30T09:06:40.854Z,100.00
2023-01-30T09:11:39.780Z,100.00
2023-01-30T09:21:04.818Z,100.00
2023-01-30T09:25:07.170Z,100.00
2023-01-30T09:29:09.092Z,100.00
2023-01-30T09:33:10.705Z,100.00
2023-01-30T09:37:12.248Z,100.00
2023-01-30T09:41:57.009Z,100.00
2023-01-30T09:46:12.712Z,100.00
2023-01-30T09:50:47.755Z,100.00
2023-01-30T09:55:00.861Z,100.00
2023-01-30T09:59:04.734Z,100.00
2023-01-30T10:03:15.201Z,100.00
2023-01-30T10:07:21.269Z,100.00
2023-01-30T10:11:47.960Z,100.00
2023-01-30T10:16:03.927Z,100.00
2023-01-30T10:20:37.381Z,100.00
2023-01-30T10:24:52.106Z,100.00
2023-01-30T10:29:08.548Z,100.00
2023-01-30T10:33:25.277Z,100.00
2023-01-30T10:37:32.610Z,100.00
2023-01-30T10:41:45.609Z,100.00
2023-01-30T10:45:53.638Z,100.00
2023-01-30T10:50:17.938Z,100.00
2023-01-30T10:54:27.120Z,100.00
2023-01-30T10:58:53.395Z,100.00
2023-01-30T11:03:11.848Z,100.00
2023-01-30T11:07:13.916Z,100.00
2023-01-30T11:11:25.313Z,100.00
2023-01-30T11:15:44.942Z,100.00
2023-01-30T11:19:55.671Z,100.00
2023-01-30T11:24:03.348Z,100.00
2023-01-30T11:28:06.412Z,100.00
2023-01-30T11:32:27.154Z,99.98
2023-01-30T11:36:33.459Z,98.98
2023-01-30T11:40:38.952Z,99.75
2023-01-30T11:44:42.447Z,100.00
2023-01-30T11:49:02.876Z,100.00
2023-01-30T11:53:34.347Z,100.00
2023-01-30T11:57:42.035Z,100.00
2023-01-30T12:01:44.893Z,100.00
2023-01-30T12:05:47.457Z,100.00
2023-01-30T12:09:50.591Z,100.00
2023-01-30T12:13:55.276Z,100.00
2023-01-30T12:18:25.543Z,100.00
2023-01-30T12:22:59.548Z,100.00
2023-01-30T12:27:39.362Z,100.00
2023-01-30T12:31:47.901Z,100.00
2023-01-30T12:36:27.631Z,100.00
2023-01-30T12:40:47.336Z,100.00
2023-01-30T12:45:13.438Z,100.00
2023-01-30T12:49:33.914Z,100.00
2023-01-30T12:53:35.621Z,100.00
2023-01-30T12:57:46.880Z,100.00
2023-01-30T13:02:07.343Z,100.00
2023-01-30T13:06:26.322Z,100.00
2023-01-30T13:10:37.931Z,100.00
2023-01-30T13:14:48.668Z,100.00
2023-01-30T13:19:23.064Z,100.00
2023-01-30T13:23:57.458Z,100.00
2023-01-30T13:28:04.525Z,100.00
2023-01-30T13:32:14.970Z,100.00
2023-01-30T13:36:39.914Z,100.00
2023-01-30T13:40:44.224Z,99.30
2023-01-30T13:44:46.649Z,98.91
2023-01-30T13:49:07.046Z,98.95
2023-01-30T13:53:22.696Z,99.17
2023-01-30T13:57:40.952Z,100.00
2023-01-30T14:02:03.789Z,100.00
2023-01-30T14:06:10.803Z,100.00
2023-01-30T14:10:20.689Z,100.00
2023-01-30T14:14:31.822Z,100.00
2023-01-30T14:18:36.283Z,100.00
2023-01-30T14:22:55.755Z,100.00
2023-01-30T14:27:01.726Z,100.00
2023-01-30T14:31:03.735Z,100.00
2023-01-30T14:35:05.600Z,100.00
2023-01-30T14:39:40.610Z,100.00
2023-01-30T14:43:42.395Z,100.00
2023-01-30T14:47:46.534Z,100.00
2023-01-30T14:51:50.495Z,100.00
2023-01-30T14:56:01.423Z,100.00
2023-01-30T15:00:18.187Z,100.00
2023-01-30T15:04:21.189Z,100.00
2023-01-30T15:08:26.595Z,100.00
2023-01-30T15:12:30.850Z,100.00
2023-01-30T15:16:38.304Z,100.00
2023-01-30T15:21:00.206Z,100.00
2023-01-30T15:25:27.558Z,100.00
2023-01-30T15:30:00.626Z,100.00
2023-01-30T15:34:02.183Z,100.00
2023-01-30T15:38:03.768Z,100.00
2023-01-30T15:42:08.114Z,100.00
2023-01-30T15:46:21.949Z,100.00
2023-01-30T15:50:23.642Z,100.00
2023-01-30T15:54:25.329Z,100.00
2023-01-30T15:58:28.260Z,100.00
2023-01-30T16:02:31.754Z,100.00
2023-01-30T16:06:35.830Z,100.00
2023-01-30T16:10:44.459Z,100.00
2023-01-30T16:14:46.069Z,100.00
2023-01-30T16:18:50.837Z,100.00
2023-01-30T16:22:53.346Z,100.00
2023-01-30T16:27:01.750Z,100.00
2023-01-30T16:31:06.970Z,100.00
2023-01-30T16:35:27.844Z,100.00
2023-01-30T16:39:36.064Z,100.00
2023-01-30T16:43:44.354Z,100.00
2023-01-30T16:47:45.944Z,100.00
2023-01-30T16:51:49.288Z,100.00
2023-01-30T16:55:58.922Z,100.00
2023-01-30T17:00:14.592Z,100.00
2023-01-30T17:04:21.367Z,100.00
2023-01-30T17:08:49.641Z,100.00
2023-01-30T17:12:53.167Z,100.00
2023-01-30T17:17:09.945Z,100.00
2023-01-30T17:21:13.660Z,100.00
2023-01-30T17:25:31.660Z,100.00
2023-01-30T17:29:42.479Z,100.00
2023-01-30T17:33:44.692Z,100.00
2023-01-30T17:37:59.633Z,100.00
2023-01-30T17:42:09.388Z,100.00
2023-01-30T17:46:12.889Z,100.00
2023-01-30T17:50:14.714Z,100.00
2023-01-30T17:54:17.088Z,100.00
2023-01-30T17:58:19.286Z,100.00
2023-01-30T18:02:20.886Z,100.00
2023-01-30T18:06:22.424Z,100.00
2023-01-30T18:10:24.378Z,100.00
2023-01-30T18:14:25.942Z,100.00
2023-01-30T18:18:27.572Z,100.00
2023-01-30T18:22:29.118Z,100.00
2023-01-30T18:26:30.794Z,100.00
2023-01-30T18:30:32.422Z,100.00
2023-01-30T18:34:34.041Z,100.00
2023-01-30T18:38:36.423Z,100.00
2023-01-30T18:42:37.969Z,100.00
2023-01-30T18:46:39.576Z,100.00
2023-01-30T18:50:41.215Z,100.00
2023-01-30T18:54:43.301Z,100.00
2023-01-30T18:58:45.033Z,100.00
2023-01-30T19:02:53.685Z,100.00
2023-01-30T19:06:55.343Z,100.00
2023-01-30T19:11:24.588Z,100.00
2023-01-30T19:15:26.239Z,100.00
2023-01-30T19:19:28.260Z,100.00
2023-01-30T19:23:31.018Z,100.00
2023-01-30T19:27:36.353Z,100.00
2023-01-30T19:31:38.247Z,100.00
2023-01-30T19:35:42.395Z,100.00
2023-01-30T19:39:44.037Z,100.00
2023-01-30T19:43:45.961Z,100.00
2023-01-30T19:47:47.641Z,100.00
2023-01-30T19:51:49.312Z,100.00
2023-01-30T19:55:51.792Z,100.00
2023-01-30T19:59:53.413Z,100.00
2023-01-30T20:03:55.563Z,100.00
2023-01-30T20:07:57.148Z,100.00
2023-01-30T20:11:58.714Z,100.00
2023-01-30T20:16:06.131Z,100.00
2023-01-30T20:20:10.309Z,100.00
2023-01-30T20:24:13.697Z,100.00
2023-01-30T20:28:15.329Z,100.00
2023-01-30T20:32:16.858Z,100.00
2023-01-30T20:36:19.792Z,100.00
2023-01-30T20:40:21.509Z,100.00
2023-01-30T20:44:24.467Z,100.00
2023-01-30T20:48:25.952Z,100.00
2023-01-30T20:52:29.526Z,100.00
2023-01-30T20:56:43.165Z,100.00
2023-01-30T21:00:44.911Z,100.00
2023-01-30T21:04:46.496Z,100.00
2023-01-30T21:08:48.118Z,100.00
2023-01-30T21:12:49.736Z,100.00
2023-01-30T21:16:51.374Z,100.00
2023-01-30T21:20:52.948Z,100.00
2023-01-30T21:24:54.674Z,100.00
2023-01-30T21:28:56.374Z,100.00
2023-01-30T21:32:58.542Z,100.00
2023-01-30T21:37:18.995Z,100.00
2023-01-30T21:41:43.511Z,100.00
2023-01-30T21:45:45.409Z,100.00
2023-01-30T21:49:47.032Z,100.00
2023-01-30T21:53:49.386Z,100.00
2023-01-30T21:57:52.393Z,100.00
2023-01-30T22:01:53.956Z,100.00
2023-01-30T22:05:55.720Z,100.00
2023-01-30T22:09:57.566Z,100.00
2023-01-30T22:14:20.719Z,100.00
2023-01-30T22:18:22.299Z,100.00
2023-01-30T22:22:24.728Z,100.00
2023-01-30T22:26:26.799Z,100.00
2023-01-30T22:30:28.444Z,100.00
2023-01-30T22:34:30.061Z,100.00
2023-01-30T22:38:31.857Z,100.00
2023-01-30T22:42:33.405Z,100.00
2023-01-30T22:46:37.581Z,100.00
2023-01-30T22:50:39.315Z,100.00
2023-01-30T22:54:40.971Z,100.00
2023-01-30T22:58:43.769Z,100.00
2023-01-30T23:02:45.456Z,100.00
2023-01-30T23:06:48.332Z,100.00
2023-01-30T23:10:49.833Z,100.00
2023-01-30T23:14:51.460Z,100.00
2023-01-30T23:18:56.658Z,100.00
2023-01-30T23:22:58.198Z,100.00
2023-01-30T23:27:03.192Z,100.00
2023-01-30T23:31:10.567Z,100.00
2023-01-30T23:35:12.176Z,100.00
2023-01-30T23:39:14.351Z,100.00
2023-01-30T23:43:16.544Z,100.00
2023-01-30T23:47:18.129Z,100.00
2023-01-30T23:51:21.273Z,100.00
2023-01-30T23:55:22.824Z,100.00
2023-01-30T23:59:24.456Z,100.00
